createdAt,value
2022-11-25T00:00:32.556Z,101089.88
2022-11-25T00:02:59.223Z,101088.91
2022-11-25T00:05:26.873Z,101084.84
2022-11-25T00:07:53.545Z,101092.53
2022-11-25T00:10:21.009Z,101088.06
2022-11-25T00:12:48.031Z,101082.75
2022-11-25T00:15:15.157Z,101083.88
2022-11-25T00:17:42.167Z,101074.22
2022-11-25T00:20:09.221Z,101075.91
2022-11-25T00:22:36.264Z,101075.19
2022-11-25T00:25:03.344Z,101071.84
2022-11-25T00:27:30.023Z,101063.88
2022-11-25T00:29:56.556Z,101066.81
2022-11-25T00:32:23.398Z,101062.47
2022-11-25T00:34:50.044Z,101063.16
2022-11-25T00:37:16.631Z,101058.16
2022-11-25T00:39:43.122Z,101038.84
2022-11-25T00:42:29.516Z,101055.91
2022-11-25T00:44:56.970Z,101059.28
2022-11-25T00:47:23.726Z,101059.56
2022-11-25T00:49:52.980Z,101062.91
2022-11-25T00:52:27.157Z,101058.72
2022-11-25T00:54:54.628Z,101065.56
2022-11-25T00:57:23.960Z,101071.88
2022-11-25T00:59:51.030Z,101061.38
2022-11-25T01:02:19.368Z,101055.50
2022-11-25T01:04:46.974Z,101055.81
2022-11-25T01:07:15.475Z,101062.47
2022-11-25T01:09:42.102Z,101066.97
2022-11-25T01:12:09.327Z,101065.16
2022-11-25T01:14:37.034Z,101060.09
2022-11-25T01:17:04.519Z,101063.47
2022-11-25T01:19:31.543Z,101054.41
2022-11-25T01:21:58.130Z,101062.75
2022-11-25T01:24:26.433Z,101071.56
2022-11-25T01:26:55.698Z,101067.25
2022-11-25T01:29:22.863Z,101068.25
2022-11-25T01:31:49.532Z,101071.88
2022-11-25T01:34:25.805Z,101079.00
2022-11-25T01:36:52.845Z,101081.81
2022-11-25T01:39:28.408Z,101086.13
2022-11-25T01:41:59.020Z,101084.47
2022-11-25T01:44:31.223Z,101075.09
2022-11-25T01:47:15.844Z,101084.47
2022-11-25T01:50:05.180Z,101090.63
2022-11-25T01:52:35.312Z,101086.56
2022-11-25T01:55:15.834Z,101094.25
2022-11-25T01:58:00.553Z,101090.88
2022-11-25T02:00:27.189Z,101087.53
2022-11-25T02:02:55.562Z,101083.91
2022-11-25T02:05:33.661Z,101092.13
2022-11-25T02:08:01.627Z,101088.38
2022-11-25T02:10:32.165Z,101092.13
2022-11-25T02:13:00.086Z,101091.16
2022-11-25T02:15:28.821Z,101074.94
2022-11-25T02:17:55.789Z,101089.47
2022-11-25T02:20:23.964Z,101088.63
2022-11-25T02:23:16.866Z,101087.66
2022-11-25T02:25:44.336Z,101092.13
2022-11-25T02:28:14.767Z,101092.28
2022-11-25T02:30:42.621Z,101089.47
2022-11-25T02:33:10.045Z,101088.63
2022-11-25T02:36:02.192Z,101104.59
2022-11-25T02:38:43.008Z,101083.47
2022-11-25T02:41:21.438Z,101080.81
2022-11-25T02:43:48.625Z,101082.63
2022-11-25T02:46:22.654Z,101095.91
2022-11-25T02:51:41.290Z,101089.63
2022-11-25T02:54:07.978Z,101093.25
2022-11-25T02:56:35.732Z,101096.75
2022-11-25T02:59:03.133Z,101078.00
2022-11-25T03:01:31.602Z,101097.59
2022-11-25T03:03:59.049Z,101087.25
2022-11-25T03:06:26.046Z,101092.28
2022-11-25T03:08:52.579Z,101086.28
2022-11-25T03:11:19.301Z,101086.13
2022-11-25T03:13:45.901Z,101095.09
2022-11-25T03:16:12.997Z,101108.22
2022-11-25T03:18:39.991Z,101103.88
2022-11-25T03:21:07.443Z,101111.84
2022-11-25T03:23:34.449Z,101119.81
2022-11-25T03:26:06.107Z,101122.47
2022-11-25T03:28:32.674Z,101119.97
2022-11-25T03:30:59.187Z,101119.81
2022-11-25T03:33:26.147Z,101110.19
2022-11-25T03:35:53.630Z,101118.16
2022-11-25T03:38:22.340Z,101106.09
2022-11-25T03:40:49.360Z,101105.03
2022-11-25T03:43:15.940Z,101115.50
2022-11-25T03:45:43.110Z,101110.19
2022-11-25T03:48:10.191Z,101102.22
2022-11-25T03:50:36.683Z,101102.38
2022-11-25T03:53:03.653Z,101114.66
2022-11-25T03:55:30.669Z,101115.66
2022-11-25T03:57:57.750Z,101118.31
2022-11-25T04:00:24.916Z,101130.72
2022-11-25T04:02:52.032Z,101129.75
2022-11-25T04:05:19.126Z,101130.72
2022-11-25T04:07:45.813Z,101138.56
2022-11-25T04:10:12.614Z,101121.47
2022-11-25T04:12:48.760Z,101139.56
2022-11-25T04:15:18.661Z,101141.34
2022-11-25T04:17:45.856Z,101141.34
2022-11-25T04:20:13.881Z,101137.97
2022-11-25T04:22:41.629Z,101135.59
2022-11-25T04:25:09.912Z,101143.28
2022-11-25T04:27:36.566Z,101137.97
2022-11-25T04:30:03.407Z,101144.25
2022-11-25T04:32:30.420Z,101129.00
2022-11-25T04:34:56.938Z,101134.63
2022-11-25T04:37:23.935Z,101143.56
2022-11-25T04:39:50.644Z,101154.88
2022-11-25T04:42:32.275Z,101154.88
2022-11-25T04:45:21.984Z,101159.34
2022-11-25T04:47:47.152Z,101164.81
2022-11-25T04:50:17.677Z,101166.47
2022-11-25T04:52:44.911Z,101170.25
2022-11-25T04:55:11.968Z,101176.41
2022-11-25T04:57:38.919Z,101175.16
2022-11-25T05:00:07.919Z,101193.44
2022-11-25T05:02:34.715Z,101189.09
2022-11-25T05:05:01.507Z,101189.28
2022-11-25T05:07:28.746Z,101200.88
2022-11-25T05:09:55.908Z,101194.00
2022-11-25T05:12:25.960Z,101191.75
2022-11-25T05:14:53.408Z,101194.28
2022-11-25T05:17:23.175Z,101197.63
2022-11-25T05:19:50.579Z,101200.56
2022-11-25T05:22:23.010Z,101208.53
2022-11-25T05:24:49.664Z,101208.78
2022-11-25T05:27:16.973Z,101219.97
2022-11-25T05:29:44.333Z,101223.63
2022-11-25T05:32:11.248Z,101229.91
2022-11-25T05:34:39.026Z,101231.72
2022-11-25T05:37:06.888Z,101223.59
2022-11-25T05:39:33.412Z,101235.47
2022-11-25T05:42:00.484Z,101230.31
2022-11-25T05:44:27.465Z,101242.03
2022-11-25T05:46:54.006Z,101234.34
2022-11-25T05:49:21.139Z,101228.31
2022-11-25T05:51:48.357Z,101233.50
2022-11-25T05:54:16.123Z,101229.88
2022-11-25T05:56:42.656Z,101242.31
2022-11-25T05:59:09.699Z,101240.63
2022-11-25T06:01:36.677Z,101252.09
2022-11-25T06:04:04.616Z,101255.00
2022-11-25T06:06:32.251Z,101259.22
2022-11-25T06:08:59.459Z,101262.44
2022-11-25T06:11:26.616Z,101258.22
2022-11-25T06:13:53.892Z,101265.94
2022-11-25T06:16:22.979Z,101271.66
2022-11-25T06:18:49.761Z,101264.97
2022-11-25T06:21:17.518Z,101275.28
2022-11-25T06:23:46.189Z,101271.81
2022-11-25T06:26:23.523Z,101267.34
2022-11-25T06:28:53.705Z,101278.13
2022-11-25T06:31:23.307Z,101267.63
2022-11-25T06:33:51.812Z,101281.44
2022-11-25T06:36:20.691Z,101290.97
2022-11-25T06:38:50.316Z,101288.44
2022-11-25T06:41:17.624Z,101285.66
2022-11-25T06:43:44.446Z,101293.63
2022-11-25T06:46:16.439Z,101293.63
2022-11-25T06:48:46.855Z,101297.97
2022-11-25T06:51:15.224Z,101301.59
2022-11-25T06:53:43.115Z,101309.16
2022-11-25T06:56:14.468Z,101306.78
2022-11-25T06:58:42.501Z,101320.63
2022-11-25T07:01:14.629Z,101315.31
2022-11-25T07:03:42.268Z,101317.00
2022-11-25T07:06:09.799Z,101316.03
2022-11-25T07:08:36.817Z,101323.28
2022-11-25T07:11:08.868Z,101328.34
2022-11-25T07:13:35.492Z,101333.66
2022-11-25T07:16:06.620Z,101342.47
2022-11-25T07:18:35.844Z,101348.63
2022-11-25T07:21:07.916Z,101352.94
2022-11-25T07:23:36.222Z,101339.81
2022-11-25T07:26:08.978Z,101345.81
2022-11-25T07:28:36.348Z,101353.94
2022-11-25T07:31:23.140Z,101347.63
2022-11-25T07:33:59.565Z,101358.25
2022-11-25T07:36:27.291Z,101359.09
2022-11-25T07:38:54.225Z,101366.19
2022-11-25T07:41:23.956Z,101373.19
2022-11-25T07:43:56.002Z,101367.88
2022-11-25T07:46:27.719Z,101366.91
2022-11-25T07:49:00.190Z,101374.03
2022-11-25T07:51:30.616Z,101386.34
2022-11-25T07:53:58.531Z,101393.34
2022-11-25T07:56:25.634Z,101399.75
2022-11-25T07:58:52.170Z,101408.31
2022-11-25T08:01:19.856Z,101402.16
2022-11-25T08:03:48.397Z,101405.78
2022-11-25T08:06:18.978Z,101420.88
2022-11-25T08:08:46.074Z,101418.34
2022-11-25T08:11:15.673Z,101412.19
2022-11-25T08:13:42.667Z,101421.84
2022-11-25T08:16:11.542Z,101418.78
2022-11-25T08:18:38.419Z,101437.78
2022-11-25T08:21:07.064Z,101436.94
2022-11-25T08:23:34.420Z,101435.84
2022-11-25T08:26:12.558Z,101432.94
2022-11-25T08:28:41.390Z,101418.78
2022-11-25T08:31:16.685Z,101436.56
2022-11-25T08:33:44.483Z,101434.13
2022-11-25T08:36:12.524Z,101439.16
2022-11-25T08:38:39.996Z,101425.16
2022-11-25T08:41:15.398Z,101446.50
2022-11-25T08:43:42.536Z,101447.19
2022-11-25T08:46:18.488Z,101440.78
2022-11-25T08:48:45.830Z,101441.88
2022-11-25T08:51:16.696Z,101456.19
2022-11-25T08:53:44.465Z,101463.75
2022-11-25T08:56:12.228Z,101458.44
2022-11-25T08:58:39.265Z,101464.34
2022-11-25T09:01:07.562Z,101471.91
2022-11-25T09:03:39.940Z,101469.25
2022-11-25T09:06:08.031Z,101460.31
2022-11-25T09:08:35.560Z,101471.38
2022-11-25T09:11:02.266Z,101477.41
2022-11-25T09:13:29.232Z,101476.44
2022-11-25T09:16:02.764Z,101484.00
2022-11-25T09:18:31.555Z,101486.53
2022-11-25T09:20:59.950Z,101491.72
2022-11-25T09:23:27.117Z,101484.72
2022-11-25T09:26:00.156Z,101483.75
2022-11-25T09:28:27.277Z,101504.47
2022-11-25T09:30:53.982Z,101508.94
2022-11-25T09:33:21.297Z,101509.66
2022-11-25T09:35:48.625Z,101520.03
2022-11-25T09:38:15.172Z,101523.81
2022-11-25T09:41:03.844Z,101531.53
2022-11-25T09:43:48.790Z,101538.41
2022-11-25T09:46:43.548Z,101533.91
2022-11-25T09:49:18.926Z,101538.09
2022-11-25T09:51:56.413Z,101527.47
2022-11-25T09:54:38.642Z,101539.66
2022-11-25T09:57:27.068Z,101550.88
2022-11-25T10:00:03.469Z,101545.69
2022-11-25T10:02:40.474Z,101550.63
2022-11-25T10:05:23.333Z,101561.13
2022-11-25T10:07:54.516Z,101565.44
2022-11-25T10:10:28.208Z,101562.09
2022-11-25T10:12:58.211Z,101560.97
2022-11-25T10:15:30.382Z,101569.53
2022-11-25T10:18:05.047Z,101567.13
2022-11-25T10:20:36.490Z,101560.97
2022-11-25T10:23:05.098Z,101586.22
2022-11-25T10:25:38.013Z,101576.66
2022-11-25T10:28:19.488Z,101579.06
2022-11-25T10:30:53.656Z,101585.22
2022-11-25T10:33:27.235Z,101585.09
2022-11-25T10:36:00.320Z,101588.59
2022-11-25T10:38:59.423Z,101584.13
2022-11-25T10:41:31.292Z,101575.69
2022-11-25T10:43:57.913Z,101572.44
2022-11-25T10:47:10.890Z,101592.94
2022-11-25T10:49:36.102Z,101600.81
2022-11-25T10:52:11.184Z,101605.97
2022-11-25T10:54:38.231Z,101605.28
2022-11-25T10:57:18.357Z,101609.63
2022-11-25T10:59:59.144Z,101617.44
2022-11-25T11:02:28.934Z,101627.25
2022-11-25T11:05:10.394Z,101629.91
2022-11-25T11:07:38.646Z,101633.41
2022-11-25T11:10:23.197Z,101638.75
2022-11-25T11:13:03.207Z,101638.75
2022-11-25T11:15:33.924Z,101651.19
2022-11-25T11:18:23.557Z,101649.38
2022-11-25T11:20:53.209Z,101651.06
2022-11-25T11:23:20.316Z,101648.41
2022-11-25T11:26:09.628Z,101656.25
2022-11-25T11:28:37.069Z,101658.91
2022-11-25T11:31:16.199Z,101657.94
2022-11-25T11:33:51.484Z,101671.16
2022-11-25T11:36:36.644Z,101665.84
2022-11-25T11:39:48.391Z,101676.47
2022-11-25T11:42:37.244Z,101676.47
2022-11-25T11:45:27.420Z,101667.88
2022-11-25T11:47:54.094Z,101676.34
2022-11-25T11:50:32.484Z,101685.19
2022-11-25T11:53:18.953Z,101682.38
2022-11-25T11:56:05.636Z,101686.88
2022-11-25T11:58:55.295Z,101682.25
2022-11-25T12:01:34.981Z,101692.06
2022-11-25T12:04:26.199Z,101685.91
2022-11-25T12:07:18.004Z,101695.56
2022-11-25T12:09:55.520Z,101693.88
2022-11-25T12:12:32.827Z,101697.63
2022-11-25T12:15:21.488Z,101700.66
2022-11-25T12:18:00.306Z,101715.88
2022-11-25T12:20:41.288Z,101710.81
2022-11-25T12:23:19.810Z,101718.25
2022-11-25T12:25:52.031Z,101730.72
2022-11-25T12:28:25.889Z,101728.91
2022-11-25T12:31:05.163Z,101731.56
2022-11-25T12:33:53.020Z,101734.09
2022-11-25T12:36:28.807Z,101735.91
2022-11-25T12:38:56.610Z,101748.38
2022-11-25T12:41:55.417Z,101747.41
2022-11-25T12:44:30.663Z,101741.66
2022-11-25T12:46:58.611Z,101752.59
2022-11-25T12:49:30.979Z,101754.41
2022-11-25T12:52:03.405Z,101757.78
2022-11-25T12:54:48.366Z,101756.94
2022-11-25T12:57:54.389Z,101753.69
2022-11-25T13:00:41.536Z,101763.97
2022-11-25T13:03:29.862Z,101762.97
2022-11-25T13:06:38.706Z,101772.78
2022-11-25T13:09:33.533Z,101780.78
2022-11-25T13:12:03.453Z,101788.75
2022-11-25T13:14:55.672Z,101780.66
2022-11-25T13:17:24.047Z,101781.75
2022-11-25T13:20:28.710Z,101800.97
2022-11-25T13:23:23.644Z,101793.09
2022-11-25T13:25:52.827Z,101802.78
2022-11-25T13:28:37.289Z,101796.75
2022-11-25T13:31:16.401Z,101805.19
2022-11-25T13:33:42.929Z,101814.03
2022-11-25T13:36:21.632Z,101814.03
2022-11-25T13:38:51.378Z,101813.03
2022-11-25T13:41:23.239Z,101819.06
2022-11-25T13:44:01.748Z,101830.69
2022-11-25T13:46:42.364Z,101836.00
2022-11-25T13:49:42.701Z,101840.34
2022-11-25T13:52:11.968Z,101842.91
2022-11-25T13:55:00.595Z,101839.38
2022-11-25T13:57:40.507Z,101839.81
2022-11-25T14:00:16.044Z,101846.28
2022-11-25T14:02:47.397Z,101847.50
2022-11-25T14:05:39.084Z,101854.25
2022-11-25T14:08:26.081Z,101866.47
2022-11-25T14:11:03.977Z,101870.81
2022-11-25T14:13:56.661Z,101874.22
2022-11-25T14:17:00.405Z,101879.41
2022-11-25T14:20:01.124Z,101885.53
2022-11-25T14:22:43.026Z,101891.59
2022-11-25T14:25:19.749Z,101899.59
2022-11-25T14:28:03.512Z,101898.06
2022-11-25T14:30:31.562Z,101907.44
2022-11-25T14:33:06.166Z,101917.00
2022-11-25T14:35:43.501Z,101915.31
2022-11-25T14:38:32.811Z,101916.16
2022-11-25T14:41:08.244Z,101931.75
2022-11-25T14:43:42.545Z,101914.22
2022-11-25T14:46:23.566Z,101922.19
2022-11-25T14:48:59.222Z,101938.66
2022-11-25T14:51:28.846Z,101926.44
2022-11-25T14:53:55.533Z,101934.41
2022-11-25T14:56:27.070Z,101946.47
2022-11-25T14:58:56.588Z,101956.88
2022-11-25T15:01:29.496Z,101952.41
2022-11-25T15:04:07.978Z,101960.25
2022-11-25T15:06:41.416Z,101958.44
2022-11-25T15:09:33.519Z,101972.63
2022-11-25T15:12:19.445Z,101965.47
2022-11-25T15:14:52.085Z,101974.31
2022-11-25T15:17:33.183Z,101978.78
2022-11-25T15:20:04.026Z,101976.97
2022-11-25T15:22:31.109Z,101988.47
2022-11-25T15:25:09.908Z,101995.63
2022-11-25T15:27:44.940Z,101995.63
2022-11-25T15:30:23.471Z,102003.59
2022-11-25T15:32:51.316Z,102005.53
2022-11-25T15:35:25.253Z,102022.25
2022-11-25T15:37:54.387Z,102025.03
2022-11-25T15:40:36.760Z,102040.16
2022-11-25T15:43:07.023Z,102036.66
2022-11-25T15:45:48.481Z,102033.41
2022-11-25T15:48:26.012Z,102049.13
2022-11-25T15:50:52.898Z,102050.22
2022-11-25T15:53:33.034Z,102053.97
2022-11-25T15:56:02.028Z,102058.50
2022-11-25T15:58:29.377Z,102070.69
2022-11-25T16:01:15.467Z,102076.00
2022-11-25T16:03:42.170Z,102076.13
2022-11-25T16:06:28.461Z,102082.31
2022-11-25T16:08:56.487Z,102086.09
2022-11-25T16:11:25.508Z,102088.03
2022-11-25T16:13:53.479Z,102088.88
2022-11-25T16:16:31.033Z,102096.88
2022-11-25T16:19:13.364Z,102095.28
2022-11-25T16:22:00.496Z,102102.31
2022-11-25T16:24:33.448Z,102116.59
2022-11-25T16:27:24.418Z,102114.91
2022-11-25T16:30:18.406Z,102123.75
2022-11-25T16:32:45.455Z,102124.72
2022-11-25T16:35:15.324Z,102129.41
2022-11-25T16:37:47.024Z,102132.09
2022-11-25T16:40:16.947Z,102134.63
2022-11-25T16:42:48.920Z,102142.63
2022-11-25T16:45:22.444Z,102138.66
2022-11-25T16:47:49.537Z,102147.34
2022-11-25T16:50:17.960Z,102156.16
2022-11-25T16:52:44.652Z,102165.84
2022-11-25T16:55:11.544Z,102166.13
2022-11-25T16:57:39.328Z,102169.47
2022-11-25T17:00:12.167Z,102175.78
2022-11-25T17:02:38.934Z,102174.22
2022-11-25T17:05:20.800Z,102186.81
2022-11-25T17:07:48.907Z,102200.97
2022-11-25T17:10:16.422Z,102201.94
2022-11-25T17:12:45.224Z,102203.75
2022-11-25T17:15:18.547Z,102210.91
2022-11-25T17:17:47.865Z,102214.41
2022-11-25T17:20:21.834Z,102217.91
2022-11-25T17:22:49.511Z,102224.31
2022-11-25T17:25:16.304Z,102221.78
2022-11-25T17:27:43.627Z,102221.91
2022-11-25T17:30:19.756Z,102229.88
2022-11-25T17:32:48.175Z,102233.50
2022-11-25T17:35:19.356Z,102239.69
2022-11-25T17:37:47.356Z,102247.94
2022-11-25T17:40:14.582Z,102248.16
2022-11-25T17:42:42.887Z,102259.44
2022-11-25T17:45:21.228Z,102264.88
2022-11-25T17:47:47.927Z,102265.00
2022-11-25T17:50:19.595Z,102261.19
2022-11-25T17:52:46.450Z,102266.91
2022-11-25T17:55:13.791Z,102271.28
2022-11-25T17:57:40.491Z,102277.56
2022-11-25T18:00:12.007Z,102284.69
2022-11-25T18:02:39.040Z,102288.31
2022-11-25T18:05:24.005Z,102290.03
2022-11-25T18:07:51.333Z,102297.28
2022-11-25T18:10:21.252Z,102308.78
2022-11-25T18:12:51.886Z,102299.31
2022-11-25T18:15:22.623Z,102302.81
2022-11-25T18:17:50.506Z,102305.38
2022-11-25T18:20:23.395Z,102312.50
2022-11-25T18:22:53.599Z,102316.88
2022-11-25T18:25:25.028Z,102323.16
2022-11-25T18:27:56.195Z,102320.03
2022-11-25T18:30:34.847Z,102328.59
2022-11-25T18:33:01.980Z,102328.72
2022-11-25T18:35:36.050Z,102325.22
2022-11-25T18:38:03.802Z,102329.56
2022-11-25T18:40:30.850Z,102336.00
2022-11-25T18:43:01.001Z,102338.66
2022-11-25T18:45:31.204Z,102343.97
2022-11-25T18:47:57.860Z,102345.06
2022-11-25T18:50:27.079Z,102354.72
2022-11-25T18:52:54.550Z,102325.84
2022-11-25T18:55:23.210Z,102361.88
2022-11-25T18:57:52.249Z,102355.69
2022-11-25T19:00:33.385Z,102359.44
2022-11-25T19:03:00.970Z,102367.19
2022-11-25T19:05:33.775Z,102365.50
2022-11-25T19:08:01.455Z,102374.44
2022-11-25T19:10:31.596Z,102384.13
2022-11-25T19:13:03.372Z,102386.91
2022-11-25T19:15:29.937Z,102388.59
2022-11-25T19:18:02.649Z,102394.03
2022-11-25T19:20:30.291Z,102402.09
2022-11-25T19:23:00.993Z,102401.25
2022-11-25T19:25:28.372Z,102400.41
2022-11-25T19:27:58.477Z,102393.72
2022-11-25T19:30:27.798Z,102407.75
2022-11-25T19:32:58.063Z,102410.31
2022-11-25T19:35:42.808Z,102410.31
2022-11-25T19:38:21.386Z,102406.41
2022-11-25T19:40:49.415Z,102420.09
2022-11-25T19:43:16.478Z,102432.53
2022-11-25T19:45:44.557Z,102423.00
2022-11-25T19:48:17.832Z,102427.47
2022-11-25T19:50:47.184Z,102431.00
2022-11-25T19:53:19.232Z,102435.47
2022-11-25T19:55:46.186Z,102434.72
2022-11-25T19:58:13.920Z,102441.75
2022-11-25T20:00:43.088Z,102436.63
2022-11-25T20:03:20.224Z,102434.94
2022-11-25T20:05:49.039Z,102434.84
2022-11-25T20:08:24.842Z,102441.97
2022-11-25T20:10:51.857Z,102451.00
2022-11-25T20:13:19.088Z,102458.03
2022-11-25T20:15:46.223Z,102458.03
2022-11-25T20:18:20.318Z,102470.50
2022-11-25T20:20:49.822Z,102458.50
2022-11-25T20:23:27.990Z,102474.22
2022-11-25T20:25:56.268Z,102487.41
2022-11-25T20:28:25.552Z,102483.16
2022-11-25T20:30:53.386Z,102489.34
2022-11-25T20:33:24.317Z,102483.06
2022-11-25T20:35:58.812Z,102486.19
2022-11-25T20:38:27.857Z,102495.00
2022-11-25T20:40:58.012Z,102493.81
2022-11-25T20:43:28.048Z,102497.44
2022-11-25T20:45:55.232Z,102484.91
2022-11-25T20:48:22.902Z,102505.41
2022-11-25T20:50:49.715Z,102516.19
2022-11-25T20:53:19.018Z,102510.13
2022-11-25T20:55:47.459Z,102521.63
2022-11-25T20:58:22.339Z,102522.47
2022-11-25T21:00:54.135Z,102515.56
2022-11-25T21:03:23.619Z,102525.22
2022-11-25T21:05:51.298Z,102522.56
2022-11-25T21:08:22.580Z,102524.38
2022-11-25T21:10:52.289Z,102523.75
2022-11-25T21:13:24.494Z,102543.00
2022-11-25T21:15:53.271Z,102549.28
2022-11-25T21:18:21.206Z,102544.06
2022-11-25T21:20:49.648Z,102553.75
2022-11-25T21:23:23.141Z,102560.88
2022-11-25T21:25:51.079Z,102567.28
2022-11-25T21:28:20.590Z,102565.47
2022-11-25T21:30:47.696Z,102582.28
2022-11-25T21:33:15.595Z,102585.03
2022-11-25T21:35:45.674Z,102583.22
2022-11-25T21:38:17.832Z,102581.63
2022-11-25T21:40:47.450Z,102593.88
2022-11-25T21:43:21.769Z,102595.69
2022-11-25T21:45:52.709Z,102600.25
2022-11-25T21:48:25.692Z,102600.16
2022-11-25T21:50:53.504Z,102616.13
2022-11-25T21:53:20.258Z,102599.09
2022-11-25T21:55:47.798Z,102625.06
2022-11-25T21:58:29.706Z,102613.91
2022-11-25T22:01:01.695Z,102618.25
2022-11-25T22:03:31.055Z,102618.13
2022-11-25T22:05:57.632Z,102618.13
2022-11-25T22:08:24.705Z,102622.63
2022-11-25T22:10:52.921Z,102617.41
2022-11-25T22:13:27.453Z,102606.44
2022-11-25T22:15:57.200Z,102623.59
2022-11-25T22:18:30.744Z,102620.94
2022-11-25T22:20:58.073Z,102619.31
2022-11-25T22:23:25.239Z,102627.19
2022-11-25T22:25:52.506Z,102628.16
2022-11-25T22:28:21.924Z,102626.34
2022-11-25T22:30:55.113Z,102642.31
2022-11-25T22:33:28.792Z,102629.22
2022-11-25T22:35:55.286Z,102637.09
2022-11-25T22:38:22.519Z,102631.97
2022-11-25T22:40:57.557Z,102646.13
2022-11-25T22:43:30.874Z,102642.06
2022-11-25T22:45:58.123Z,102647.09
2022-11-25T22:48:32.211Z,102651.44
2022-11-25T22:50:59.133Z,102652.41
2022-11-25T22:53:26.210Z,102660.38
2022-11-25T22:55:58.139Z,102656.03
2022-11-25T22:58:28.430Z,102657.94
2022-11-25T23:00:57.277Z,102661.44
2022-11-25T23:03:29.229Z,102663.25
2022-11-25T23:05:56.881Z,102668.47
2022-11-25T23:08:26.928Z,102666.25
2022-11-25T23:10:54.596Z,102669.75
2022-11-25T23:13:21.603Z,102674.31
2022-11-25T23:15:53.815Z,102680.28
2022-11-25T23:18:36.797Z,102679.44
2022-11-25T23:21:17.419Z,102684.97
2022-11-25T23:23:44.632Z,102690.28
2022-11-25T23:26:16.028Z,102686.97
2022-11-25T23:28:42.737Z,102702.72
2022-11-25T23:31:13.087Z,102701.13
2022-11-25T23:33:51.385Z,102706.44
2022-11-25T23:36:27.676Z,102709.19
2022-11-25T23:39:01.029Z,102709.19
2022-11-25T23:41:35.233Z,102707.91
2022-11-25T23:44:30.772Z,102716.44
2022-11-25T23:47:03.286Z,102722.69
2022-11-25T23:49:37.137Z,102720.03
2022-11-25T23:52:07.978Z,102706.41
2022-11-25T23:54:42.521Z,102719.59
2022-11-25T23:57:23.068Z,102716.09
2022-11-25T23:59:50.481Z,102723.31
